createdAt,value
2022-07-25T00:03:35.615Z,26.0
2022-07-25T00:17:35.736Z,26.2
2022-07-25T00:31:35.767Z,26.2
2022-07-25T00:45:35.680Z,25.2
2022-07-25T00:59:35.676Z,24.6
2022-07-25T01:13:35.826Z,24.2
2022-07-25T01:27:35.906Z,24.0
2022-07-25T01:41:35.932Z,24.4
2022-07-25T01:55:35.929Z,24.3
2022-07-25T02:09:35.970Z,23.7
2022-07-25T02:23:35.957Z,23.5
2022-07-25T02:37:36.011Z,23.6
2022-07-25T02:51:36.064Z,23.4
2022-07-25T03:05:36.088Z,23.2
2022-07-25T03:19:36.075Z,22.7
2022-07-25T03:33:36.124Z,22.5
2022-07-25T03:48:36.162Z,22.5
2022-07-25T04:03:36.186Z,22.3
2022-07-25T04:18:36.207Z,22.8
2022-07-25T04:34:36.251Z,23.4
2022-07-25T04:49:36.290Z,23.6
2022-07-25T05:04:36.305Z,23.9
2022-07-25T05:19:36.371Z,24.3
2022-07-25T05:34:36.397Z,24.6
2022-07-25T05:49:36.413Z,25.3
2022-07-25T06:04:36.501Z,26.0
2022-07-25T06:19:36.505Z,28.5
2022-07-25T06:34:36.537Z,30.7
2022-07-25T06:49:36.474Z,33.1
2022-07-25T07:04:36.477Z,33.7
2022-07-25T07:19:36.488Z,34.2
2022-07-25T07:34:36.487Z,34.4
2022-07-25T07:49:36.910Z,34.7
2022-07-25T08:04:36.564Z,34.4
2022-07-25T08:19:36.633Z,34.0
2022-07-25T08:34:36.653Z,34.9
2022-07-25T08:49:36.655Z,35.0
2022-07-25T09:04:36.671Z,35.8
2022-07-25T09:19:36.691Z,36.0
2022-07-25T09:34:36.687Z,36.6
2022-07-25T09:49:36.716Z,37.1
2022-07-25T10:04:36.709Z,37.0
2022-07-25T10:19:36.726Z,37.5
2022-07-25T10:34:36.715Z,36.5
2022-07-25T10:50:29.516Z,37.1
2022-07-25T11:05:09.394Z,37.2
2022-07-25T11:21:10.183Z,37.7
2022-07-25T11:36:10.327Z,37.6
2022-07-25T11:51:11.599Z,37.9
2022-07-25T12:06:10.355Z,37.8
2022-07-25T12:21:10.126Z,37.8
2022-07-25T12:37:10.044Z,38.6
2022-07-25T12:52:10.093Z,39.7
2022-07-25T13:07:10.111Z,38.5
2022-07-25T13:22:10.240Z,39.3
2022-07-25T13:37:10.164Z,38.7
2022-07-25T13:52:10.177Z,39.5
2022-07-25T14:07:10.234Z,39.0
2022-07-25T14:22:10.188Z,38.7
2022-07-25T14:37:10.234Z,39.0
2022-07-25T14:52:10.182Z,40.1
2022-07-25T15:07:10.198Z,38.4
2022-07-25T15:22:10.205Z,39.2
2022-07-25T15:37:10.277Z,38.8
2022-07-25T15:52:10.443Z,37.4
2022-07-25T16:07:10.534Z,36.4
2022-07-25T16:22:10.378Z,36.1
2022-07-25T16:37:10.399Z,36.2
2022-07-25T16:52:10.403Z,38.2
2022-07-25T17:07:10.498Z,37.4
2022-07-25T17:22:10.653Z,35.5
2022-07-25T17:37:11.040Z,33.5
2022-07-25T17:52:11.365Z,32.7
2022-07-25T18:07:11.975Z,32.1
2022-07-25T18:22:12.037Z,31.6
2022-07-25T18:37:12.062Z,30.6
2022-07-25T18:53:12.057Z,29.6
2022-07-25T19:08:12.079Z,29.0
2022-07-25T19:23:12.084Z,28.6
2022-07-25T19:37:12.113Z,28.5
2022-07-25T19:51:12.118Z,28.3
2022-07-25T20:05:12.123Z,28.0
2022-07-25T20:19:12.210Z,27.7
2022-07-25T20:33:12.201Z,27.5
2022-07-25T20:47:12.233Z,27.3
2022-07-25T21:01:12.329Z,27.1
2022-07-25T21:15:12.274Z,27.0
2022-07-25T21:29:12.330Z,26.9
2022-07-25T21:43:12.972Z,26.6
2022-07-25T21:57:13.033Z,27.5
2022-07-25T22:11:16.199Z,27.5
2022-07-25T22:25:12.425Z,27.3
2022-07-25T22:39:12.679Z,28.1
2022-07-25T22:53:12.399Z,28.2
2022-07-25T23:07:12.463Z,21.4
2022-07-25T23:21:34.269Z,20.4
2022-07-25T23:35:12.556Z,20.8
2022-07-25T23:49:13.242Z,21.1
